Time;durP1;ratioP1;P1;durP2;ratioP2;P2;SDS_P1;SDS_P2;PMS_P1;PMS_P2;Temp;Humidity;BMP_temperature;BMP_pressure;BME280_temperature;BME280_humidity;BME280_pressure;Samples;Min_cycle;Max_cycle;Signal;HPM_P1;HPM_P2
2022/11/08 00:25:34;;;;;;;15.00;8.23;;;;;;;5.98;78.19;100280.44;30616312;28;97139;-67
2022/11/08 00:40:35;;;;;;;15.18;8.88;;;;;;;5.80;78.48;100277.59;30574120;28;1206324;-67
2022/11/08 00:55:35;;;;;;;13.10;7.75;;;;;;;5.86;78.83;100274.41;30619747;28;96771;-69
2022/11/08 01:10:39;;;;;;;15.90;8.85;;;;;;;5.71;78.74;100263.41;30618990;28;96721;-71
2022/11/08 01:25:45;;;;;;;17.33;8.70;;;;;;;5.50;79.08;100250.28;30615829;28;97320;-66
2022/11/08 01:40:47;;;;;;;14.10;8.05;;;;;;;5.38;79.18;100261.94;30615873;28;96681;-67
2022/11/08 01:55:48;;;;;;;12.70;7.30;;;;;;;5.36;79.22;100251.50;30614797;28;97408;-66
2022/11/08 02:10:52;;;;;;;13.95;8.48;;;;;;;5.19;79.44;100244.22;30614216;28;96964;-67
2022/11/08 02:25:52;;;;;;;;;;;;;;;4.95;78.90;100233.97;30612956;28;96731;-67
2022/11/08 02:40:56;;;;;;;14.20;9.73;;;;;;;4.59;79.80;100237.00;30611185;28;97340;-68
2022/11/08 02:55:57;;;;;;;14.77;8.37;;;;;;;4.64;79.92;100253.28;30610169;28;97351;-67
2022/11/08 03:11:00;;;;;;;15.05;8.35;;;;;;;4.56;80.48;100245.19;30608999;28;96788;-67
2022/11/08 03:26:04;;;;;;;14.70;8.57;;;;;;;4.45;80.24;100242.63;30619258;28;96676;-67
2022/11/08 03:41:04;;;;;;;17.07;9.63;;;;;;;4.40;80.35;100254.41;30626864;28;96854;-69
2022/11/08 03:56:05;;;;;;;14.10;8.38;;;;;;;4.38;80.67;100247.56;30624828;28;96760;-67
2022/11/08 04:26:24;;;;;;;13.60;9.15;;;;;;;4.30;80.92;100240.28;30621419;28;97147;-67
2022/11/08 04:41:25;;;;;;;16.45;9.07;;;;;;;4.27;81.13;100253.75;30618596;28;97190;-66
2022/11/08 04:56:28;;;;;;;15.23;8.77;;;;;;;4.12;81.34;100249.75;30617094;28;96641;-66
2022/11/08 05:11:29;;;;;;;15.45;10.70;;;;;;;3.97;81.18;100250.03;30614926;28;96822;-66
2022/11/08 05:26:33;;;;;;;19.00;10.98;;;;;;;4.03;81.97;100243.44;30612354;28;96676;-67
2022/11/08 05:41:33;;;;;;;20.57;12.03;;;;;;;4.11;81.90;100240.16;30608937;28;97479;-68
2022/11/08 05:56:34;;;;;;;28.45;19.08;;;;;;;4.06;81.97;100248.47;30609267;28;97407;-68
2022/11/08 06:11:34;;;;;;;33.53;21.17;;;;;;;4.20;82.31;100268.41;30606660;28;96836;-71
2022/11/08 06:26:34;;;;;;;30.92;18.85;;;;;;;4.42;82.30;100266.63;30606436;28;97123;-67
2022/11/08 06:41:35;;;;;;;47.00;26.40;;;;;;;5.39;82.87;100264.44;30604746;28;96768;-67
2022/11/08 06:56:35;;;;;;;28.38;15.98;;;;;;;6.82;82.78;100278.13;30610342;28;97232;-66
2022/11/08 07:11:36;;;;;;;28.58;18.08;;;;;;;8.37;81.85;100277.38;30622094;28;97347;-68
2022/11/08 07:26:36;;;;;;;26.83;15.88;;;;;;;9.79;79.47;100287.59;30623939;28;96723;-66
2022/11/08 07:41:37;;;;;;;14.95;8.98;;;;;;;11.38;77.30;100279.31;30623628;28;97202;-68
2022/11/08 07:56:37;;;;;;;15.30;7.28;;;;;;;13.46;74.30;100271.06;30622314;28;97454;-63
2022/11/08 08:11:37;;;;;;;8.50;5.63;;;;;;;15.17;70.95;100273.03;30621342;28;96687;-68
2022/11/08 08:26:38;;;;;;;8.65;3.95;;;;;;;25.84;51.50;100280.53;30617611;28;96889;-69
2022/11/08 08:41:38;;;;;;;6.13;3.27;;;;;;;24.79;47.47;100278.75;30608351;28;98547;-77
2022/11/08 08:56:39;;;;;;;6.00;2.97;;;;;;;24.33;47.43;100290.91;30607394;28;97918;-66
2022/11/08 09:11:40;;;;;;;7.70;3.10;;;;;;;25.89;40.44;100282.47;30607114;28;97357;-67
2022/11/08 09:26:40;;;;;;;5.13;3.33;;;;;;;27.64;34.82;100281.38;30602739;28;97575;-67
2022/11/08 09:41:47;;;;;;;5.85;2.92;;;;;;;26.34;33.40;100275.44;30598240;28;98758;-70
2022/11/08 09:56:47;;;;;;;6.13;2.53;;;;;;;27.56;30.57;100271.88;30608537;28;96767;-65
2022/11/08 10:12:16;;;;;;;7.53;2.53;;;;;;;27.53;31.71;100259.56;30599711;28;97321;-65
2022/11/08 10:27:37;;;;;;;5.40;2.80;;;;;;;28.64;28.85;100249.16;30597203;28;97403;-65
2022/11/08 10:42:56;;;;;;;5.43;2.63;;;;;;;36.99;20.54;100230.88;30629020;28;98425;-65
2022/11/08 10:57:57;;;;;;;4.30;2.50;;;;;;;39.07;17.50;100213.50;30629367;28;96787;-63
2022/11/08 11:13:17;;;;;;;5.68;1.98;;;;;;;40.16;16.20;100190.59;30626326;28;97263;-64
2022/11/08 11:28:18;;;;;;;4.50;1.80;;;;;;;40.50;16.04;100176.84;30627419;28;97004;-62
2022/11/08 11:43:30;;;;;;;7.15;1.85;;;;;;;39.72;15.73;100169.47;30624579;28;97459;-61
2022/11/08 11:59:07;;;;;;;5.33;2.27;;;;;;;39.07;16.28;100157.00;30675228;28;97370;-63
2022/11/08 12:14:19;;;;;;;3.63;1.47;;;;;;;37.16;16.53;100146.53;30618986;28;96762;-64
2022/11/08 12:29:34;;;;;;;4.90;1.30;;;;;;;36.26;17.64;100123.09;30617918;28;97125;-66
2022/11/08 12:44:44;;;;;;;6.97;3.07;;;;;;;33.83;19.76;100117.09;30613439;28;97194;-66
2022/11/08 12:59:53;;;;;;;3.90;1.70;;;;;;;33.08;20.23;100103.50;30609865;28;96838;-73
2022/11/08 13:14:54;;;;;;;4.80;2.07;;;;;;;30.29;23.05;100089.50;30614740;28;97080;-68
2022/11/08 13:30:15;;;;;;;4.03;1.60;;;;;;;28.69;24.82;100095.63;30611280;28;97226;-66
2022/11/08 13:45:15;;;;;;;3.37;1.40;;;;;;;27.14;26.29;100070.81;30604574;28;96735;-68
2022/11/08 14:00:41;;;;;;;3.05;1.10;;;;;;;26.05;28.04;100058.72;30608005;28;97222;-64
2022/11/08 14:15:49;;;;;;;4.13;0.90;;;;;;;22.97;31.81;100066.06;30599495;28;97589;-61
2022/11/08 14:30:49;;;;;;;3.80;1.43;;;;;;;20.12;36.00;100045.44;30593572;28;98098;-61
2022/11/08 14:45:50;;;;;;;3.88;2.20;;;;;;;17.97;40.15;100037.88;30599252;28;97033;-62
2022/11/08 15:00:51;;;;;;;5.18;2.05;;;;;;;16.64;43.64;100030.47;30601274;28;97331;-60
2022/11/08 15:16:01;;;;;;;5.20;2.67;;;;;;;15.07;47.17;100044.50;30594696;28;97574;-60
2022/11/08 15:31:03;;;;;;;14.83;6.20;;;;;;;13.85;49.98;100039.59;30621569;28;96801;-60
2022/11/08 15:46:05;;;;;;;11.33;3.70;;;;;;;13.05;51.96;100041.56;30619946;28;96841;-61
2022/11/08 16:01:05;;;;;;;8.23;4.67;;;;;;;12.31;55.35;100037.22;30620751;28;97315;-60
2022/11/08 16:16:11;;;;;;;14.18;6.35;;;;;;;11.77;57.11;100031.09;30620862;28;97160;-61
2022/11/08 16:31:14;;;;;;;10.63;4.93;;;;;;;11.40;58.61;100014.09;30619719;28;96667;-62
2022/11/08 16:46:17;;;;;;;10.23;5.40;;;;;;;10.91;59.78;100019.78;30618401;28;97137;-62
2022/11/08 17:01:22;;;;;;;11.23;6.50;;;;;;;10.64;60.47;100028.09;30616513;28;97360;-61
2022/11/08 17:16:22;;;;;;;17.63;6.83;;;;;;;10.40;61.51;100037.03;30612588;28;98454;-63
2022/11/08 17:31:22;;;;;;;15.90;8.45;;;;;;;10.16;62.38;100033.41;30611035;28;97338;-61
2022/11/08 17:46:23;;;;;;;15.40;7.95;;;;;;;9.99;63.13;100019.34;30610673;28;97382;-68
2022/11/08 18:01:23;;;;;;;14.52;9.13;;;;;;;9.78;63.93;100003.91;30616372;28;97329;-62
2022/11/08 18:16:24;;;;;;;16.55;9.77;;;;;;;9.63;65.00;100022.38;30605667;28;97534;-60
2022/11/08 18:31:25;;;;;;;16.05;8.93;;;;;;;9.49;65.73;100025.75;30603342;28;96888;-62
2022/11/08 18:46:27;;;;;;;18.00;10.45;;;;;;;9.34;66.41;100025.56;30574214;28;97952;-61
2022/11/08 19:01:28;;;;;;;18.03;10.43;;;;;;;9.23;67.34;100020.59;30619936;28;98036;-62
2022/11/08 19:16:28;;;;;;;23.83;12.35;;;;;;;9.11;67.71;100018.25;30623624;28;96720;-61
2022/11/08 19:31:30;;;;;;;20.05;11.10;;;;;;;9.02;68.02;100032.53;30620234;28;98553;-62
2022/11/08 19:46:31;;;;;;;21.00;12.23;;;;;;;8.85;68.69;100038.81;30621996;28;97385;-59
2022/11/08 20:01:35;;;;;;;19.13;11.03;;;;;;;8.78;69.47;100058.03;30618486;28;97454;-59
2022/11/08 20:16:38;;;;;;;;;;;;;;;8.70;69.56;100057.19;30618692;28;97194;-60
2022/11/08 20:31:40;;;;;;;20.47;12.80;;;;;;;8.63;70.13;100051.69;30618382;28;97203;-61
2022/11/08 20:46:40;;;;;;;21.77;11.50;;;;;;;8.59;70.59;100055.66;30614375;28;96720;-62
2022/11/08 21:01:41;;;;;;;18.23;11.05;;;;;;;8.59;70.62;100055.66;30617400;28;96985;-62
2022/11/08 21:16:41;;;;;;;22.30;11.93;;;;;;;8.63;71.23;100057.00;30613233;28;96707;-63
2022/11/08 21:31:41;;;;;;;22.77;13.10;;;;;;;8.67;70.97;100058.34;30634211;28;96860;-61
2022/11/08 21:46:42;;;;;;;23.02;12.35;;;;;;;8.75;71.29;100044.28;30611533;28;97163;-62
2022/11/08 22:01:42;;;;;;;18.33;9.52;;;;;;;8.79;71.46;100049.09;30610667;28;97470;-64
2022/11/08 22:16:43;;;;;;;20.92;11.27;;;;;;;8.77;71.49;100048.41;30608485;28;97724;-60
2022/11/08 22:31:43;;;;;;;19.83;11.35;;;;;;;8.80;71.90;100034.81;30610847;28;97787;-61
2022/11/08 22:46:45;;;;;;;22.08;12.20;;;;;;;8.83;71.67;100035.47;30600891;28;97092;-60
2022/11/08 23:01:45;;;;;;;18.53;12.03;;;;;;;8.75;72.35;100023.03;30610688;28;96754;-60
2022/11/08 23:16:46;;;;;;;21.25;12.07;;;;;;;8.72;72.72;100029.50;30609437;28;97285;-60
2022/11/08 23:31:46;;;;;;;24.75;13.55;;;;;;;8.87;72.93;100021.72;30608015;28;96664;-62
2022/11/08 23:46:47;;;;;;;23.40;12.93;;;;;;;9.02;73.46;100026.38;30622753;28;96796;-61
